Time;durP1;ratioP1;P1;durP2;ratioP2;P2;SDS_P1;SDS_P2;PMS_P1;PMS_P2;Temp;Humidity;BMP_temperature;BMP_pressure;BME280_temperature;BME280_humidity;BME280_pressure;Samples;Min_cycle;Max_cycle;Signal;HPM_P1;HPM_P2
2022/12/09 00:01:28;;;;;;;0.00;0.00;;;;;;;-3.66;100.00;97650.31;4992112;28;20774;-61
2022/12/09 00:03:56;;;;;;;0.10;0.10;;;;;;;-3.63;100.00;97649.34;5004799;28;20252;-62
2022/12/09 00:06:25;;;;;;;0.00;0.00;;;;;;;-3.60;100.00;97646.63;5007211;28;20732;-62
2022/12/09 00:08:54;;;;;;;0.00;0.00;;;;;;;-3.64;100.00;97645.94;4999214;28;20537;-62
2022/12/09 00:11:21;;;;;;;0.00;0.00;;;;;;;-3.56;100.00;97648.09;5014361;28;20741;-62
2022/12/09 00:13:49;;;;;;;0.00;0.00;;;;;;;-3.61;100.00;97635.56;5011247;28;20311;-62
2022/12/09 00:16:16;;;;;;;0.10;0.10;;;;;;;-3.59;100.00;97621.00;5012880;28;20321;-62
2022/12/09 00:18:43;;;;;;;0.00;0.00;;;;;;;-3.62;100.00;97628.03;5015180;28;20234;-62
2022/12/09 00:21:14;;;;;;;0.00;0.00;;;;;;;-3.57;100.00;97628.59;5007835;28;20702;-62
2022/12/09 00:23:41;;;;;;;0.00;0.00;;;;;;;-3.61;100.00;97633.03;5012302;28;20257;-62
2022/12/09 00:26:09;;;;;;;0.03;0.03;;;;;;;-3.62;100.00;97633.94;5003731;28;20266;-63
2022/12/09 00:28:36;;;;;;;0.00;0.00;;;;;;;-3.66;100.00;97634.22;5012847;28;20229;-62
2022/12/09 00:31:03;;;;;;;0.00;0.00;;;;;;;-3.64;100.00;97623.00;4996649;28;20559;-62
2022/12/09 00:33:30;;;;;;;0.00;0.00;;;;;;;-3.54;100.00;97620.75;5002154;28;20690;-62
2022/12/09 00:36:04;;;;;;;0.10;0.10;;;;;;;-3.47;100.00;97619.50;5009683;28;20294;-62
2022/12/09 00:38:32;;;;;;;0.10;0.10;;;;;;;-3.59;100.00;97621.00;4999033;28;20571;-62
2022/12/09 00:40:59;;;;;;;0.00;0.00;;;;;;;-3.63;100.00;97619.53;5011528;28;20607;-62
2022/12/09 00:43:27;;;;;;;0.00;0.00;;;;;;;-3.67;100.00;97612.97;5010221;28;20220;-62
2022/12/09 00:45:54;;;;;;;0.10;0.10;;;;;;;-3.68;100.00;97615.63;4991830;28;20283;-63
2022/12/09 00:48:20;;;;;;;0.03;0.03;;;;;;;-3.72;100.00;97607.34;5012092;28;20222;-63
2022/12/09 00:50:47;;;;;;;0.10;0.10;;;;;;;-3.72;100.00;97603.03;5013507;28;20711;-63
2022/12/09 00:53:15;;;;;;;0.10;0.10;;;;;;;-3.75;100.00;97610.06;5010114;28;20246;-63
2022/12/09 00:55:41;;;;;;;0.00;0.00;;;;;;;-3.69;100.00;97601.22;5001186;28;20252;-63
2022/12/09 00:58:08;;;;;;;0.00;0.00;;;;;;;-3.77;100.00;97609.31;5020329;28;20276;-63
2022/12/09 01:00:36;;;;;;;0.03;0.03;;;;;;;-3.79;100.00;97606.03;5024651;28;20234;-63
2022/12/09 01:03:03;;;;;;;0.10;0.10;;;;;;;-3.86;100.00;97610.63;5024562;28;20229;-63
2022/12/09 01:05:30;;;;;;;0.10;0.10;;;;;;;-3.74;100.00;97606.59;5008399;28;20884;-63
2022/12/09 01:07:56;;;;;;;0.00;0.00;;;;;;;-3.80;100.00;97605.19;5007791;28;20225;-63
2022/12/09 01:10:23;;;;;;;0.10;0.10;;;;;;;-3.77;100.00;97610.13;5013766;28;20226;-63
2022/12/09 01:12:49;;;;;;;0.00;0.00;;;;;;;-3.71;100.00;97607.22;5029420;28;20727;-63
2022/12/09 01:15:16;;;;;;;0.00;0.00;;;;;;;-3.79;100.00;97609.38;5027531;28;20222;-63
2022/12/09 01:17:44;;;;;;;0.00;0.00;;;;;;;-3.77;100.00;97601.66;5009522;28;20233;-63
2022/12/09 01:20:11;;;;;;;0.00;0.00;;;;;;;-3.66;100.00;97596.75;5022856;28;20229;-63
2022/12/09 01:22:37;;;;;;;0.10;0.10;;;;;;;-3.72;100.00;97597.94;5024064;28;20232;-63
2022/12/09 01:25:04;;;;;;;0.10;0.10;;;;;;;-3.69;100.00;97593.56;5005018;28;20222;-63
2022/12/09 01:27:32;;;;;;;0.10;0.10;;;;;;;-3.65;100.00;97589.94;5025599;28;20234;-63
2022/12/09 01:29:58;;;;;;;0.10;0.10;;;;;;;-3.71;100.00;97598.78;5005735;28;20239;-63
2022/12/09 01:32:25;;;;;;;0.00;0.00;;;;;;;-3.61;100.00;97589.66;5007084;28;20238;-63
2022/12/09 01:34:53;;;;;;;0.10;0.10;;;;;;;-3.63;100.00;97581.28;5006189;28;20701;-63
2022/12/09 01:37:20;;;;;;;0.00;0.00;;;;;;;-3.64;100.00;97586.47;5009479;28;20229;-63
2022/12/09 01:39:46;;;;;;;0.10;0.10;;;;;;;-3.65;100.00;97587.38;5005391;28;20248;-63
2022/12/09 01:42:19;;;;;;;0.00;0.00;;;;;;;-3.78;100.00;97590.63;5009530;28;20749;-63
2022/12/09 01:45:30;;;;;;;0.10;0.10;;;;;;;-3.82;100.00;97578.97;5022613;28;20218;-63
2022/12/09 01:48:01;;;;;;;0.00;0.00;;;;;;;-3.84;100.00;97564.66;4916396;29;20741;-63
2022/12/09 01:50:31;;;;;;;0.00;0.00;;;;;;;-3.83;100.00;97562.00;5001233;28;20233;-63
2022/12/09 01:52:58;;;;;;;0.00;0.00;;;;;;;-3.88;100.00;97564.84;5024943;28;20234;-63
2022/12/09 01:55:26;;;;;;;0.00;0.00;;;;;;;-3.82;100.00;97558.56;5012606;28;20230;-63
2022/12/09 01:57:54;;;;;;;0.00;0.00;;;;;;;-3.81;100.00;97560.19;5021000;28;20258;-63
2022/12/09 02:00:21;;;;;;;0.10;0.10;;;;;;;-3.79;100.00;97563.47;5004581;28;20295;-62
2022/12/09 02:02:51;;;;;;;0.10;0.10;;;;;;;-3.77;100.00;97559.13;5010439;28;20233;-62
2022/12/09 02:05:23;;;;;;;0.00;0.00;;;;;;;-3.85;100.00;97556.19;5007876;28;20253;-62
2022/12/09 02:07:55;;;;;;;0.10;0.10;;;;;;;-3.68;100.00;97550.09;5002474;28;20712;-62
2022/12/09 02:10:22;;;;;;;0.00;0.00;;;;;;;-3.69;100.00;97548.47;4997759;28;20230;-62
2022/12/09 02:13:09;;;;;;;0.10;0.10;;;;;;;-3.80;100.00;97541.44;4996790;28;20229;-62
2022/12/09 02:15:42;;;;;;;0.10;0.10;;;;;;;-3.88;100.00;97546.16;5021910;28;20566;-62
2022/12/09 02:18:15;;;;;;;0.00;0.00;;;;;;;-3.85;100.00;97543.44;4996580;28;20233;-62
2022/12/09 02:20:48;;;;;;;0.10;0.10;;;;;;;-3.88;100.00;97535.97;5007030;28;20229;-62
2022/12/09 02:23:22;;;;;;;0.00;0.00;;;;;;;-3.75;100.00;97533.53;5004681;28;20744;-62
2022/12/09 02:25:57;;;;;;;0.00;0.00;;;;;;;-3.75;100.00;97531.00;5010274;28;20713;-62
2022/12/09 02:29:05;;;;;;;0.00;0.00;;;;;;;-3.84;100.00;97529.78;5026451;28;20258;-62
2022/12/09 02:31:49;;;;;;;0.10;0.10;;;;;;;-3.89;100.00;97526.66;5007939;28;20233;-62
2022/12/09 02:34:20;;;;;;;0.10;0.10;;;;;;;-3.80;100.00;97522.78;5003936;28;20243;-62
2022/12/09 02:36:59;;;;;;;0.10;0.10;;;;;;;-3.79;100.00;97517.59;5003554;28;20260;-62
2022/12/09 02:39:30;;;;;;;0.00;0.00;;;;;;;-3.87;100.00;97512.09;5007044;28;20291;-62
2022/12/09 02:42:02;;;;;;;0.00;0.00;;;;;;;-3.89;100.00;97506.28;5002933;28;20236;-62
2022/12/09 02:44:30;;;;;;;0.10;0.10;;;;;;;-3.95;100.00;97509.16;5007299;28;20229;-62
2022/12/09 02:46:58;;;;;;;0.00;0.00;;;;;;;-4.00;100.00;97502.59;5003932;28;20284;-62
2022/12/09 02:49:28;;;;;;;0.10;0.10;;;;;;;-3.98;100.00;97496.59;5010279;28;20232;-62
2022/12/09 02:51:57;;;;;;;0.03;0.03;;;;;;;-3.97;100.00;97491.44;5004610;28;20240;-62
2022/12/09 02:54:28;;;;;;;0.03;0.03;;;;;;;-3.95;100.00;97496.41;5029169;28;20279;-62
2022/12/09 02:56:58;;;;;;;0.00;0.00;;;;;;;-3.94;100.00;97492.97;5007167;28;20224;-62
2022/12/09 02:59:28;;;;;;;0.10;0.10;;;;;;;-3.94;100.00;97495.50;5004774;28;20609;-62
2022/12/09 03:02:00;;;;;;;0.10;0.10;;;;;;;-3.89;100.00;97488.41;5023426;28;20251;-62
2022/12/09 03:04:31;;;;;;;0.10;0.10;;;;;;;-3.84;100.00;97488.19;5024966;28;20560;-62
2022/12/09 03:07:07;;;;;;;0.07;0.07;;;;;;;-3.82;100.00;97484.63;5025001;28;20233;-62
2022/12/09 03:09:40;;;;;;;0.03;0.03;;;;;;;-3.77;100.00;97482.63;5023579;28;20230;-62
2022/12/09 03:12:10;;;;;;;0.00;0.00;;;;;;;-3.78;100.00;97470.78;5022253;28;20236;-62
2022/12/09 03:14:43;;;;;;;0.00;0.00;;;;;;;-3.81;100.00;97476.06;5027354;28;20775;-62
2022/12/09 03:17:13;;;;;;;0.07;0.07;;;;;;;-3.77;100.00;97474.16;5022778;28;20226;-63
2022/12/09 03:19:47;;;;;;;0.00;0.00;;;;;;;-3.82;100.00;97471.88;5023874;28;20236;-62
2022/12/09 03:22:18;;;;;;;0.00;0.00;;;;;;;-3.83;100.00;97471.97;5020034;28;20233;-62
2022/12/09 03:24:50;;;;;;;0.03;0.03;;;;;;;-3.85;100.00;97466.94;5022100;28;20247;-62
2022/12/09 03:27:22;;;;;;;0.10;0.10;;;;;;;-3.80;100.00;97459.84;5024403;28;20229;-62
2022/12/09 03:29:51;;;;;;;0.00;0.00;;;;;;;-3.82;100.00;97461.66;5023240;28;20241;-62
2022/12/09 03:32:23;;;;;;;0.00;0.00;;;;;;;-3.77;100.00;97462.22;5024685;28;20284;-62
2022/12/09 03:34:57;;;;;;;0.00;0.00;;;;;;;-3.75;100.00;97447.66;5022214;28;20748;-62
2022/12/09 03:37:26;;;;;;;0.00;0.00;;;;;;;-3.63;100.00;97443.53;5025337;28;20275;-62
2022/12/09 03:39:55;;;;;;;0.10;0.10;;;;;;;-3.64;100.00;97444.44;5020012;28;20269;-62
2022/12/09 03:42:28;;;;;;;0.10;0.10;;;;;;;-3.65;100.00;97445.34;5025098;28;20292;-62
2022/12/09 03:44:59;;;;;;;0.07;0.07;;;;;;;-3.66;100.00;97438.63;5023243;28;20222;-62
2022/12/09 03:47:31;;;;;;;0.00;0.00;;;;;;;-3.65;100.00;97442.00;5027727;28;20243;-62
2022/12/09 03:49:59;;;;;;;0.00;0.00;;;;;;;-3.62;100.00;97437.53;5028521;28;20221;-62
2022/12/09 03:52:31;;;;;;;0.10;0.10;;;;;;;-3.54;100.00;97437.09;5025694;28;20234;-62
2022/12/09 03:55:01;;;;;;;0.00;0.00;;;;;;;-3.53;100.00;97440.44;5026319;28;20292;-62
2022/12/09 03:57:29;;;;;;;0.00;0.00;;;;;;;-3.46;100.00;97440.00;5028350;28;20282;-62
2022/12/09 03:59:59;;;;;;;0.10;0.10;;;;;;;-3.49;100.00;97432.53;5026404;28;20340;-62
2022/12/09 04:05:10;;;;;;;0.00;0.00;;;;;;;-3.48;100.00;97430.78;5226239;22;20264;-60
2022/12/09 04:07:36;;;;;;;0.00;0.00;;;;;;;-3.44;100.00;97417.75;5003544;28;20222;-60
2022/12/09 04:10:04;;;;;;;0.00;0.00;;;;;;;-3.44;100.00;97417.75;5009731;28;20291;-59
2022/12/09 04:12:31;;;;;;;0.03;0.03;;;;;;;-3.34;100.00;97420.56;5009034;28;20233;-59
2022/12/09 04:14:57;;;;;;;0.10;0.10;;;;;;;-3.29;100.00;97412.66;4992322;28;20638;-59
2022/12/09 04:17:24;;;;;;;0.00;0.00;;;;;;;-3.29;100.00;97410.09;4986500;28;20270;-59
2022/12/09 04:19:50;;;;;;;0.00;0.00;;;;;;;-3.20;100.00;97413.81;4982264;28;20241;-59
2022/12/09 04:22:18;;;;;;;0.10;0.10;;;;;;;-3.23;100.00;97406.34;4987222;28;20239;-59
2022/12/09 04:24:45;;;;;;;0.00;0.00;;;;;;;-3.14;100.00;97400.66;4985791;28;20771;-60
2022/12/09 04:27:12;;;;;;;0.00;0.00;;;;;;;-3.20;100.00;97396.78;4988236;28;20716;-58
2022/12/09 04:29:39;;;;;;;0.00;0.00;;;;;;;-3.23;100.00;97394.41;5000278;28;20318;-60
2022/12/09 04:32:06;;;;;;;0.00;0.00;;;;;;;-3.22;100.00;97390.09;5182607;23;20245;-59
2022/12/09 04:34:33;;;;;;;0.00;0.00;;;;;;;-3.18;100.00;97378.78;5006224;28;20357;-60
2022/12/09 04:37:00;;;;;;;0.03;0.03;;;;;;;-3.12;100.00;97379.22;5002957;28;20289;-59
2022/12/09 04:39:28;;;;;;;0.00;0.00;;;;;;;-3.15;100.00;97370.94;5007066;28;20241;-59
2022/12/09 04:41:54;;;;;;;0.00;0.00;;;;;;;-3.10;100.00;97366.38;5005641;28;20237;-60
2022/12/09 04:44:21;;;;;;;0.00;0.00;;;;;;;-3.07;100.00;97367.91;5004502;28;20245;-59
2022/12/09 04:46:48;;;;;;;0.00;0.00;;;;;;;-3.07;100.00;97361.06;5004489;28;20236;-59
2022/12/09 04:49:15;;;;;;;0.00;0.00;;;;;;;-3.12;100.00;97370.75;5006564;28;20267;-59
2022/12/09 04:51:42;;;;;;;0.00;0.00;;;;;;;-3.03;100.00;97362.53;5007456;28;20773;-60
2022/12/09 04:54:12;;;;;;;0.10;0.10;;;;;;;-2.91;100.00;97358.38;5004329;28;20231;-59
2022/12/09 04:56:40;;;;;;;0.10;0.10;;;;;;;-3.03;100.00;97359.97;5005797;28;20233;-59
2022/12/09 04:59:06;;;;;;;0.00;0.00;;;;;;;-3.06;100.00;97367.81;5002423;28;20228;-60
2022/12/09 05:01:33;;;;;;;0.10;0.10;;;;;;;-3.05;100.00;97360.97;5007532;28;20599;-59
2022/12/09 05:04:00;;;;;;;0.00;0.00;;;;;;;-3.01;100.00;97355.59;5002794;28;20847;-59
2022/12/09 05:06:27;;;;;;;0.00;0.00;;;;;;;-2.92;100.00;97350.81;5007158;28;20239;-60
2022/12/09 05:08:54;;;;;;;0.00;0.00;;;;;;;-3.02;100.00;97353.94;5006609;28;20834;-59
2022/12/09 05:11:22;;;;;;;0.00;0.00;;;;;;;-3.05;100.00;97354.16;5006557;28;20250;-60
2022/12/09 05:13:51;;;;;;;0.00;0.00;;;;;;;-3.07;100.00;97344.94;5004639;28;20256;-60
2022/12/09 05:16:19;;;;;;;0.00;0.00;;;;;;;-2.88;100.00;97347.97;5006339;28;20802;-59
2022/12/09 05:18:47;;;;;;;0.00;0.00;;;;;;;-2.90;100.00;97337.03;5004647;28;20234;-60
2022/12/09 05:21:16;;;;;;;0.00;0.00;;;;;;;-2.89;100.00;97337.84;5006343;28;20244;-59
2022/12/09 05:23:44;;;;;;;0.00;0.00;;;;;;;-2.77;100.00;97339.63;5006553;28;20277;-58
2022/12/09 05:26:13;;;;;;;0.00;0.00;;;;;;;-2.75;100.00;97329.28;5004335;28;20230;-58
2022/12/09 05:28:40;;;;;;;0.00;0.00;;;;;;;-2.85;100.00;97341.84;5006374;28;20227;-59
2022/12/09 05:31:11;;;;;;;0.10;0.10;;;;;;;-2.75;100.00;97342.91;5003923;28;20421;-60
2022/12/09 05:33:38;;;;;;;0.00;0.00;;;;;;;-2.80;100.00;97341.53;5005397;28;20234;-60
2022/12/09 05:36:09;;;;;;;0.10;0.10;;;;;;;-2.77;100.00;97337.06;5003919;28;20271;-59
2022/12/09 05:38:35;;;;;;;0.00;0.00;;;;;;;-2.74;100.00;97329.22;5006345;28;20236;-60
2022/12/09 05:41:02;;;;;;;0.00;0.00;;;;;;;-2.77;100.00;97328.56;5002389;28;20242;-59
2022/12/09 05:43:29;;;;;;;0.00;0.00;;;;;;;-2.75;100.00;97329.28;5005960;28;20261;-60
2022/12/09 05:45:55;;;;;;;0.00;0.00;;;;;;;-2.77;100.00;97319.19;5002145;28;20305;-59
2022/12/09 05:48:23;;;;;;;0.00;0.00;;;;;;;-2.78;100.00;97317.56;5005731;28;20283;-59
2022/12/09 05:50:56;;;;;;;0.03;0.03;;;;;;;-2.86;100.00;97315.47;5003191;28;20281;-60
2022/12/09 05:53:23;;;;;;;0.10;0.10;;;;;;;-2.76;100.00;97323.38;5005039;28;20236;-59
2022/12/09 05:55:49;;;;;;;0.00;0.00;;;;;;;-2.79;100.00;97315.91;5002847;28;20240;-60
2022/12/09 05:58:16;;;;;;;0.10;0.10;;;;;;;-2.76;100.00;97320.00;5005432;28;20629;-59
2022/12/09 06:00:43;;;;;;;0.00;0.00;;;;;;;-2.75;100.00;97324.19;5005828;28;20285;-61
2022/12/09 06:03:09;;;;;;;0.00;0.00;;;;;;;-2.75;100.00;97319.06;5002129;28;20248;-60
2022/12/09 06:05:37;;;;;;;0.00;0.00;;;;;;;-2.61;100.00;97319.00;5005988;28;20242;-60
2022/12/09 06:08:05;;;;;;;0.00;0.00;;;;;;;-2.61;100.00;97318.16;5001990;28;20235;-61
2022/12/09 06:10:31;;;;;;;0.00;0.00;;;;;;;-2.56;100.00;97319.50;5004291;28;20223;-60
2022/12/09 06:12:58;;;;;;;0.00;0.00;;;;;;;-2.48;100.00;97315.63;5003185;28;20283;-60
2022/12/09 06:15:25;;;;;;;0.00;0.00;;;;;;;-2.38;100.00;97322.59;5005311;28;20336;-60
2022/12/09 06:17:52;;;;;;;0.00;0.00;;;;;;;-2.33;99.05;97319.75;5003844;28;20241;-60
2022/12/09 06:20:18;;;;;;;0.00;0.00;;;;;;;-2.20;97.63;97321.47;5005339;28;20277;-61
2022/12/09 06:22:46;;;;;;;0.00;0.00;;;;;;;-2.08;96.31;97321.47;5003355;28;20238;-61
2022/12/09 06:25:13;;;;;;;0.00;0.00;;;;;;;-1.93;94.69;97321.34;5004959;28;20231;-61
2022/12/09 06:27:39;;;;;;;0.10;0.10;;;;;;;-1.78;95.04;97319.47;5005193;28;20231;-61
2022/12/09 06:30:07;;;;;;;0.00;0.00;;;;;;;-1.81;94.25;97317.94;5002452;28;20243;-60
2022/12/09 06:32:34;;;;;;;0.00;0.00;;;;;;;-1.77;93.37;97320.31;5005046;28;20324;-60
2022/12/09 06:35:00;;;;;;;0.00;0.00;;;;;;;-1.82;94.99;97318.88;5002864;28;20769;-60
2022/12/09 06:37:27;;;;;;;0.00;0.00;;;;;;;-1.75;94.14;97315.91;5004988;28;20636;-61
2022/12/09 06:39:55;;;;;;;0.00;0.00;;;;;;;-1.72;93.74;97308.81;5003201;28;20226;-60
2022/12/09 06:42:21;;;;;;;0.00;0.00;;;;;;;-1.68;94.47;97314.56;5004436;28;20243;-60
2022/12/09 06:44:48;;;;;;;0.00;0.00;;;;;;;-1.67;93.86;97314.44;5002794;28;20239;-60
2022/12/09 06:47:14;;;;;;;0.00;0.00;;;;;;;-1.60;92.98;97319.13;5004748;28;20237;-61
2022/12/09 06:49:41;;;;;;;0.00;0.00;;;;;;;-1.66;91.90;97308.38;5005475;28;20768;-61
2022/12/09 06:52:07;;;;;;;0.00;0.00;;;;;;;-1.69;92.36;97311.16;5002493;28;20642;-61
2022/12/09 06:54:34;;;;;;;0.00;0.00;;;;;;;-1.74;93.04;97312.41;5003522;28;20232;-60
2022/12/09 06:57:02;;;;;;;0.00;0.00;;;;;;;-1.73;92.81;97304.63;5003151;28;20236;-60
2022/12/09 06:59:28;;;;;;;0.00;0.00;;;;;;;-1.82;94.31;97300.97;5003018;28;20685;-60
2022/12/09 07:01:55;;;;;;;0.00;0.00;;;;;;;-1.83;94.72;97301.06;5001927;28;20709;-60
2022/12/09 07:04:22;;;;;;;0.00;0.00;;;;;;;-1.81;95.31;97294.09;5004031;28;20728;-61
2022/12/09 07:06:48;;;;;;;0.00;0.00;;;;;;;-1.84;94.95;97295.13;5002647;28;20648;-59
2022/12/09 07:09:18;;;;;;;0.00;0.00;;;;;;;-1.91;95.71;97300.75;5004337;28;20308;-60
2022/12/09 07:11:45;;;;;;;0.00;0.00;;;;;;;-1.93;96.69;97294.00;5004892;28;20718;-60
2022/12/09 07:14:15;;;;;;;0.00;0.00;;;;;;;-1.94;97.08;97300.06;5002156;28;20238;-60
2022/12/09 07:16:41;;;;;;;0.07;0.07;;;;;;;-1.97;97.91;97302.03;5004767;28;20233;-59
2022/12/09 07:19:08;;;;;;;0.00;0.00;;;;;;;-1.95;97.57;97295.06;5002486;28;20238;-59
2022/12/09 07:21:34;;;;;;;0.00;0.00;;;;;;;-1.86;98.63;97298.72;5009085;28;20237;-59
2022/12/09 07:24:03;;;;;;;0.00;0.00;;;;;;;-1.95;98.34;97298.41;5006618;28;20238;-60
2022/12/09 07:26:31;;;;;;;0.00;0.00;;;;;;;-1.93;98.75;97290.66;5007436;28;20291;-60
2022/12/09 07:29:00;;;;;;;0.00;0.00;;;;;;;-1.91;98.35;97301.59;5006148;28;20660;-60
2022/12/09 07:31:29;;;;;;;0.00;0.00;;;;;;;-1.93;99.06;97301.69;5008142;28;20287;-60
2022/12/09 07:33:57;;;;;;;0.00;0.00;;;;;;;-1.89;99.40;97306.59;5007142;28;20245;-60
2022/12/09 07:36:26;;;;;;;0.00;0.00;;;;;;;-1.79;99.80;97312.72;5008100;28;20242;-60
2022/12/09 07:38:55;;;;;;;0.00;0.00;;;;;;;-1.69;98.95;97303.50;5004865;28;20308;-60
2022/12/09 07:41:21;;;;;;;0.00;0.00;;;;;;;-1.64;99.38;97298.06;5007947;28;20318;-60
2022/12/09 07:43:48;;;;;;;0.00;0.00;;;;;;;-1.56;99.49;97303.44;5006039;28;20235;-61
2022/12/09 07:46:16;;;;;;;0.00;0.00;;;;;;;-1.48;99.30;97301.16;5008051;28;20229;-59
2022/12/09 07:48:45;;;;;;;0.00;0.00;;;;;;;-1.34;97.09;97297.66;5008656;28;20230;-60
2022/12/09 07:51:12;;;;;;;0.00;0.00;;;;;;;-1.23;98.20;97303.75;5004614;28;20638;-60
2022/12/09 07:53:39;;;;;;;0.00;0.00;;;;;;;-1.21;97.90;97305.25;5008256;28;20240;-60
2022/12/09 07:56:08;;;;;;;0.00;0.00;;;;;;;-1.19;98.24;97310.28;5005552;28;20243;-60
2022/12/09 07:58:35;;;;;;;0.00;0.00;;;;;;;-1.15;97.91;97311.69;5008640;28;20238;-61
2022/12/09 08:01:05;;;;;;;0.00;0.00;;;;;;;-1.12;97.82;97315.78;5005562;28;20723;-60
2022/12/09 08:03:31;;;;;;;0.00;0.00;;;;;;;-1.08;97.85;97304.38;5007950;28;20621;-61
2022/12/09 08:05:59;;;;;;;0.00;0.00;;;;;;;-1.00;97.62;97303.81;5005497;28;20606;-60
2022/12/09 08:08:26;;;;;;;0.00;0.00;;;;;;;-0.92;96.69;97311.78;5008185;28;20702;-59
2022/12/09 08:10:53;;;;;;;0.00;0.00;;;;;;;-1.05;96.77;97312.66;5005693;28;20706;-60
2022/12/09 08:13:20;;;;;;;0.00;0.00;;;;;;;-0.99;97.45;97310.56;5007390;28;20277;-59
2022/12/09 08:15:46;;;;;;;0.00;0.00;;;;;;;-1.01;98.20;97308.16;5005456;28;20690;-60
2022/12/09 08:18:16;;;;;;;0.00;0.00;;;;;;;-0.88;98.03;97309.81;5003753;28;20237;-59
2022/12/09 08:20:42;;;;;;;0.00;0.00;;;;;;;-0.85;98.00;97312.16;5006911;28;20248;-60
2022/12/09 08:23:10;;;;;;;0.00;0.00;;;;;;;-0.76;98.52;97301.25;5003502;28;20732;-60
2022/12/09 08:25:36;;;;;;;0.00;0.00;;;;;;;-0.65;98.28;97301.28;5006962;28;20223;-60
2022/12/09 08:28:03;;;;;;;0.00;0.00;;;;;;;-0.58;97.44;97301.63;5004531;28;20228;-61
2022/12/09 08:30:30;;;;;;;0.00;0.00;;;;;;;-0.47;96.88;97299.09;5006955;28;20282;-61
2022/12/09 08:32:56;;;;;;;0.00;0.00;;;;;;;-0.29;96.42;97288.38;5004625;28;20289;-61
2022/12/09 08:35:23;;;;;;;0.00;0.00;;;;;;;-0.14;96.17;97296.66;5006753;28;20315;-59
2022/12/09 08:37:49;;;;;;;0.00;0.00;;;;;;;0.00;94.94;97290.50;5005205;28;20236;-60
2022/12/09 08:40:17;;;;;;;0.00;0.00;;;;;;;0.18;95.09;97290.00;5006272;28;20254;-60
2022/12/09 08:42:47;;;;;;;0.00;0.00;;;;;;;0.19;95.05;97296.75;5007566;28;20228;-60
2022/12/09 08:45:16;;;;;;;0.00;0.00;;;;;;;0.28;94.31;97293.50;5004962;28;20236;-60
2022/12/09 08:47:42;;;;;;;0.10;0.10;;;;;;;0.34;92.69;97299.91;5007718;28;20231;-60
2022/12/09 08:50:09;;;;;;;0.00;0.00;;;;;;;0.23;91.81;97303.28;5004594;28;20260;-60
2022/12/09 08:52:36;;;;;;;0.00;0.00;;;;;;;0.06;90.28;97300.28;5007265;28;20231;-61
2022/12/09 08:55:06;;;;;;;0.00;0.00;;;;;;;-0.09;91.70;97301.47;5004095;28;20648;-59
2022/12/09 08:57:34;;;;;;;0.00;0.00;;;;;;;-0.24;91.80;97304.25;5006460;28;20232;-61
2022/12/09 09:00:01;;;;;;;0.00;0.00;;;;;;;-0.24;93.74;97300.84;5003764;28;20236;-60
2022/12/09 09:02:28;;;;;;;0.00;0.00;;;;;;;-0.20;95.14;97297.97;5005353;28;20239;-61
2022/12/09 09:04:55;;;;;;;0.00;0.00;;;;;;;-0.24;94.54;97300.84;5003433;28;20239;-60
2022/12/09 09:07:22;;;;;;;0.00;0.00;;;;;;;-0.20;95.17;97294.56;5006385;28;20306;-60
2022/12/09 09:09:48;;;;;;;0.00;0.00;;;;;;;-0.21;95.01;97300.63;5004642;28;20243;-61
2022/12/09 09:12:15;;;;;;;0.00;0.00;;;;;;;-0.07;95.00;97294.47;5006193;28;20247;-61
2022/12/09 09:14:43;;;;;;;0.00;0.00;;;;;;;-0.13;91.88;97292.38;5007631;28;20263;-60
2022/12/09 09:17:09;;;;;;;0.00;0.00;;;;;;;-0.03;91.97;97291.53;5004081;28;20239;-60
2022/12/09 09:19:41;;;;;;;0.00;0.00;;;;;;;-0.02;92.61;97288.03;5006288;28;20228;-60
2022/12/09 09:22:07;;;;;;;0.00;0.00;;;;;;;0.08;93.32;97285.56;5003434;28;20294;-61
2022/12/09 09:24:34;;;;;;;0.00;0.00;;;;;;;0.14;93.98;97276.59;5006492;28;20228;-60
2022/12/09 09:27:00;;;;;;;0.00;0.00;;;;;;;0.23;93.06;97278.47;5003922;28;20228;-59
2022/12/09 09:29:30;;;;;;;0.00;0.00;;;;;;;0.29;91.24;97272.03;5005340;28;20639;-62
2022/12/09 09:31:57;;;;;;;0.00;0.00;;;;;;;0.34;91.35;97272.47;5003014;28;20240;-60
2022/12/09 09:34:25;;;;;;;0.00;0.00;;;;;;;0.39;91.89;97272.13;5005085;28;20663;-60
2022/12/09 09:36:52;;;;;;;0.00;0.00;;;;;;;0.40;91.11;97279.69;5004070;28;20240;-60
2022/12/09 09:39:19;;;;;;;0.00;0.00;;;;;;;0.36;90.78;97282.66;5005785;28;20233;-61
2022/12/09 09:41:50;;;;;;;0.00;0.00;;;;;;;0.32;90.79;97282.06;5003469;28;20302;-60
2022/12/09 09:44:22;;;;;;;0.00;0.00;;;;;;;0.23;89.15;97277.63;5005781;28;20239;-61
2022/12/09 09:46:51;;;;;;;0.00;0.00;;;;;;;0.26;89.10;97280.78;5019314;28;20228;-61
2022/12/09 09:49:28;;;;;;;0.00;0.00;;;;;;;0.32;90.18;97281.25;5005636;28;20239;-61
2022/12/09 09:51:55;;;;;;;0.00;0.00;;;;;;;0.29;88.39;97282.28;5002882;28;20235;-61
2022/12/09 09:54:24;;;;;;;0.00;0.00;;;;;;;0.22;88.60;97293.97;5005014;28;20655;-60
2022/12/09 09:57:00;;;;;;;0.00;0.00;;;;;;;0.14;88.79;97294.56;5003365;28;20236;-61
2022/12/09 09:59:51;;;;;;;0.00;0.00;;;;;;;0.23;87.32;97287.91;5002336;28;20227;-60
2022/12/09 10:02:24;;;;;;;0.00;0.00;;;;;;;0.03;87.98;97287.69;4987861;28;20235;-61
2022/12/09 10:05:04;;;;;;;0.00;0.00;;;;;;;-0.01;88.86;97291.44;5001064;28;20224;-62
2022/12/09 10:07:36;;;;;;;0.00;0.00;;;;;;;-0.13;89.68;97290.59;5005010;28;20247;-62
2022/12/09 10:10:14;;;;;;;0.00;0.00;;;;;;;-0.05;89.09;97282.34;5002857;28;20595;-62
2022/12/09 10:12:59;;;;;;;0.00;0.00;;;;;;;0.01;88.08;97289.53;5005036;28;20243;-61
2022/12/09 10:15:29;;;;;;;0.00;0.00;;;;;;;0.15;85.80;97291.06;5000950;28;20729;-62
2022/12/09 10:18:08;;;;;;;0.00;0.00;;;;;;;0.27;85.92;97279.84;5002452;28;20238;-62
2022/12/09 10:20:37;;;;;;;0.00;0.00;;;;;;;0.51;84.60;97275.47;5005458;28;20610;-62
2022/12/09 10:23:06;;;;;;;0.00;0.00;;;;;;;0.60;86.10;97279.91;5001964;28;20327;-62
2022/12/09 10:25:35;;;;;;;0.00;0.00;;;;;;;0.76;84.70;97274.34;5004105;28;20257;-61
2022/12/09 10:28:08;;;;;;;0.00;0.00;;;;;;;0.88;82.99;97265.66;5003090;28;20282;-61
2022/12/09 10:30:35;;;;;;;0.00;0.00;;;;;;;0.86;83.34;97270.09;5004365;28;20235;-60
2022/12/09 10:33:02;;;;;;;0.00;0.00;;;;;;;1.14;84.68;97267.06;5000357;28;20700;-61
2022/12/09 10:35:31;;;;;;;0.00;0.00;;;;;;;1.42;83.21;97260.50;5002455;28;20627;-60
2022/12/09 10:38:08;;;;;;;0.00;0.00;;;;;;;1.51;81.71;97273.53;5001351;28;20232;-61
2022/12/09 10:40:41;;;;;;;0.00;0.00;;;;;;;1.59;81.00;97266.78;5001838;28;20236;-62
2022/12/09 10:43:37;;;;;;;0.00;0.00;;;;;;;1.74;78.63;97258.75;5000551;28;20290;-61
2022/12/09 10:46:09;;;;;;;0.03;0.03;;;;;;;1.71;80.09;97251.28;5001320;28;20240;-61
2022/12/09 10:48:38;;;;;;;0.00;0.00;;;;;;;1.68;79.49;97248.97;5005265;28;20231;-63
2022/12/09 10:51:20;;;;;;;0.00;0.00;;;;;;;1.61;78.00;97253.78;5001729;28;20228;-61
2022/12/09 10:53:52;;;;;;;0.00;0.00;;;;;;;1.43;78.47;97253.56;4999340;28;20236;-60
2022/12/09 10:56:27;;;;;;;0.00;0.00;;;;;;;1.35;81.11;97248.25;5003228;28;20227;-62
2022/12/09 10:59:15;;;;;;;0.00;0.00;;;;;;;1.37;81.39;97254.06;5002348;28;20220;-62
2022/12/09 11:01:50;;;;;;;0.00;0.00;;;;;;;1.39;82.81;97252.19;5002740;28;20314;-62
2022/12/09 11:04:24;;;;;;;0.00;0.00;;;;;;;1.45;83.42;97251.69;4999985;28;20224;-61
2022/12/09 11:06:52;;;;;;;0.00;0.00;;;;;;;1.37;80.59;97248.94;5002201;28;20247;-60
2022/12/09 11:09:24;;;;;;;0.00;0.00;;;;;;;1.30;80.87;97248.63;5003946;28;20709;-60
2022/12/09 11:11:51;;;;;;;0.00;0.00;;;;;;;1.27;81.26;97251.47;5003765;28;20282;-60
2022/12/09 11:14:22;;;;;;;0.00;0.00;;;;;;;1.23;81.86;97240.59;5003439;28;20224;-59
2022/12/09 11:16:51;;;;;;;0.00;0.00;;;;;;;1.15;83.67;97237.84;5001942;28;20228;-61
2022/12/09 11:19:18;;;;;;;0.00;0.00;;;;;;;1.19;83.49;97231.50;5002998;28;20232;-60
2022/12/09 11:21:45;;;;;;;0.00;0.00;;;;;;;1.06;82.00;97224.00;5004551;28;20297;-60
2022/12/09 11:24:23;;;;;;;0.00;0.00;;;;;;;1.13;82.47;97217.41;5001012;28;20364;-61
2022/12/09 11:26:49;;;;;;;0.00;0.00;;;;;;;1.17;83.63;97225.69;5001825;28;20286;-61
2022/12/09 11:29:18;;;;;;;0.00;0.00;;;;;;;1.27;84.07;97220.63;5004322;28;20239;-60
2022/12/09 11:31:45;;;;;;;0.00;0.00;;;;;;;1.53;81.26;97221.00;5004537;28;20319;-59
2022/12/09 11:34:21;;;;;;;0.07;0.07;;;;;;;1.52;82.17;97213.44;5002008;28;20235;-59
2022/12/09 11:36:51;;;;;;;0.00;0.00;;;;;;;1.71;81.94;97220.41;5002176;28;20331;-60
2022/12/09 11:39:25;;;;;;;0.03;0.03;;;;;;;1.86;82.21;97220.84;5002746;28;20290;-59
2022/12/09 11:44:39;;;;;;;0.00;0.00;;;;;;;2.30;81.44;97223.13;5001668;28;20248;-60
2022/12/09 11:47:10;;;;;;;0.00;0.00;;;;;;;2.62;81.74;97229.81;5001419;28;21226;-60